createdAt,value
2018-05-15T00:00:17.132Z,0.00
2018-05-15T00:00:53.946Z,0.00
2018-05-15T00:01:29.272Z,0.00
2018-05-15T00:02:04.931Z,0.00
2018-05-15T00:02:41.224Z,0.00
2018-05-15T00:03:16.319Z,0.00
2018-05-15T00:03:51.666Z,0.00
2018-05-15T00:04:26.932Z,0.00
2018-05-15T00:05:02.775Z,0.00
2018-05-15T00:05:39.705Z,0.00
2018-05-15T00:06:15.496Z,0.00
2018-05-15T00:06:52.236Z,0.00
2018-05-15T00:07:27.647Z,0.00
2018-05-15T00:08:03.146Z,0.00
2018-05-15T00:08:39.209Z,0.00
2018-05-15T00:09:14.502Z,0.00
2018-05-15T00:09:50.230Z,0.00
2018-05-15T00:11:05.732Z,0.00
2018-05-15T00:11:41.110Z,0.00
2018-05-15T00:12:16.657Z,0.00
2018-05-15T00:12:51.918Z,0.00
2018-05-15T00:13:27.739Z,0.00
2018-05-15T00:14:03.441Z,0.00
2018-05-15T00:14:38.827Z,0.00
2018-05-15T00:15:14.291Z,0.00
2018-05-15T00:15:49.835Z,0.00
2018-05-15T00:16:24.980Z,0.00
2018-05-15T00:17:00.414Z,0.00
2018-05-15T00:17:36.728Z,0.00
2018-05-15T00:18:12.305Z,0.00
2018-05-15T00:18:47.797Z,0.00
2018-05-15T00:19:26.319Z,0.00
2018-05-15T00:20:03.276Z,0.00
2018-05-15T00:20:40.472Z,0.00
2018-05-15T00:21:16.001Z,0.00
2018-05-15T00:21:51.342Z,0.00
2018-05-15T00:22:26.907Z,0.00
2018-05-15T00:23:02.312Z,0.00
2018-05-15T00:23:37.440Z,0.00
2018-05-15T00:24:12.936Z,0.00
2018-05-15T00:24:49.423Z,0.00
2018-05-15T00:25:24.795Z,0.00
2018-05-15T00:26:00.284Z,0.00
2018-05-15T00:26:35.673Z,0.00
2018-05-15T00:27:10.899Z,0.00
2018-05-15T00:27:47.217Z,0.00
2018-05-15T00:28:22.338Z,0.00
2018-05-15T00:28:57.999Z,0.00
2018-05-15T00:29:33.448Z,0.00
2018-05-15T00:30:08.955Z,0.00
2018-05-15T00:30:45.353Z,0.00
2018-05-15T00:31:20.477Z,0.00
2018-05-15T00:31:55.863Z,0.00
2018-05-15T00:32:30.929Z,0.00
2018-05-15T00:33:06.605Z,0.00
2018-05-15T00:33:42.203Z,0.00
2018-05-15T00:34:17.711Z,0.00
2018-05-15T00:34:54.354Z,0.00
2018-05-15T00:35:29.832Z,0.00
2018-05-15T00:36:05.296Z,0.00
2018-05-15T00:36:41.256Z,0.00
2018-05-15T00:37:18.071Z,0.00
2018-05-15T00:37:53.417Z,0.00
2018-05-15T00:38:28.778Z,0.00
2018-05-15T00:39:03.976Z,0.00
2018-05-15T00:39:40.141Z,0.00
2018-05-15T00:40:15.636Z,0.00
2018-05-15T00:40:51.401Z,0.00
2018-05-15T00:41:26.650Z,0.00
2018-05-15T00:42:02.346Z,0.00
2018-05-15T00:42:38.282Z,0.00
2018-05-15T00:43:14.461Z,0.00
2018-05-15T00:43:49.735Z,0.00
2018-05-15T00:44:25.069Z,0.00
2018-05-15T00:45:00.708Z,0.00
2018-05-15T00:45:35.909Z,0.00
2018-05-15T00:46:11.488Z,0.00
2018-05-15T00:46:48.135Z,0.00
2018-05-15T00:47:23.798Z,0.00
2018-05-15T00:47:59.457Z,0.00
2018-05-15T00:48:34.691Z,0.00
2018-05-15T00:49:10.062Z,0.00
2018-05-15T00:49:47.020Z,0.00
2018-05-15T00:50:22.711Z,0.00
2018-05-15T00:50:58.483Z,0.00
2018-05-15T00:51:33.653Z,0.00
2018-05-15T00:52:09.505Z,0.00
2018-05-15T00:52:44.865Z,0.00
2018-05-15T00:53:20.245Z,0.00
2018-05-15T00:53:55.587Z,0.00
2018-05-15T00:54:31.293Z,0.00
2018-05-15T00:55:06.665Z,0.00
2018-05-15T00:55:42.133Z,0.00
2018-05-15T00:56:17.411Z,0.00
2018-05-15T00:56:52.890Z,0.00
2018-05-15T00:57:28.362Z,0.00
2018-05-15T00:58:03.775Z,0.00
2018-05-15T00:58:39.130Z,0.00
2018-05-15T00:59:14.982Z,0.00
2018-05-15T00:59:50.084Z,0.00
2018-05-15T01:00:25.411Z,0.00
2018-05-15T01:01:01.325Z,0.00
2018-05-15T01:01:36.870Z,0.00
2018-05-15T01:02:12.223Z,0.00
2018-05-15T01:02:47.616Z,0.00
2018-05-15T01:03:23.053Z,0.00
2018-05-15T01:03:59.120Z,0.00
2018-05-15T01:04:34.474Z,0.00
2018-05-15T01:05:09.880Z,0.00
2018-05-15T01:05:47.480Z,0.00
2018-05-15T01:06:22.968Z,0.00
2018-05-15T01:06:58.346Z,0.00
2018-05-15T01:07:33.751Z,0.00
2018-05-15T01:08:09.127Z,0.00
2018-05-15T01:08:44.829Z,0.00
2018-05-15T01:09:19.870Z,0.00
2018-05-15T01:09:55.328Z,0.00
2018-05-15T01:10:30.776Z,0.00
2018-05-15T01:11:06.346Z,0.00
2018-05-15T01:11:41.698Z,0.00
2018-05-15T01:12:17.226Z,0.00
2018-05-15T01:12:52.692Z,0.00
2018-05-15T01:13:28.320Z,0.00
2018-05-15T01:14:03.806Z,0.00
2018-05-15T01:14:39.034Z,0.00
2018-05-15T01:15:16.014Z,0.00
2018-05-15T01:15:51.505Z,0.00
2018-05-15T01:16:26.760Z,0.00
2018-05-15T01:17:02.290Z,0.00
2018-05-15T01:17:37.796Z,0.00
2018-05-15T01:18:13.091Z,0.00
2018-05-15T01:18:50.135Z,0.00
2018-05-15T01:19:23.721Z,0.00
2018-05-15T01:19:59.089Z,0.00
2018-05-15T01:20:34.406Z,0.00
2018-05-15T01:21:09.975Z,0.00
2018-05-15T01:21:45.635Z,0.00
2018-05-15T01:22:21.111Z,0.00
2018-05-15T01:22:56.491Z,0.00
2018-05-15T01:23:31.633Z,0.00
2018-05-15T01:24:06.883Z,0.00
2018-05-15T01:24:42.503Z,0.00
2018-05-15T01:25:17.857Z,0.00
2018-05-15T01:25:53.397Z,0.00
2018-05-15T01:26:29.161Z,0.00
2018-05-15T01:27:04.449Z,0.00
2018-05-15T01:27:40.111Z,0.00
2018-05-15T01:28:15.529Z,0.00
2018-05-15T01:28:50.908Z,0.00
2018-05-15T01:29:26.284Z,0.00
2018-05-15T01:30:01.636Z,0.00
2018-05-15T01:30:37.408Z,0.00
2018-05-15T01:31:12.659Z,0.00
2018-05-15T01:31:50.245Z,0.00
2018-05-15T01:32:25.837Z,0.00
2018-05-15T01:33:00.850Z,0.00
2018-05-15T01:33:36.705Z,0.00
2018-05-15T01:34:11.902Z,0.00
2018-05-15T01:34:48.087Z,0.00
2018-05-15T01:35:23.476Z,0.00
2018-05-15T01:36:00.781Z,0.00
2018-05-15T01:36:36.421Z,0.00
2018-05-15T01:37:12.258Z,0.00
2018-05-15T01:37:48.447Z,0.00
2018-05-15T01:38:23.911Z,0.00
2018-05-15T01:38:59.626Z,0.00
2018-05-15T01:39:35.124Z,0.00
2018-05-15T01:40:11.767Z,0.00
2018-05-15T01:40:47.098Z,0.00
2018-05-15T01:41:22.969Z,0.00
2018-05-15T01:41:59.127Z,0.00
2018-05-15T01:42:34.358Z,0.00
2018-05-15T01:43:10.150Z,0.00
2018-05-15T01:43:45.453Z,0.00
2018-05-15T01:44:20.527Z,0.00
2018-05-15T01:44:59.310Z,0.00
2018-05-15T01:45:35.866Z,0.00
2018-05-15T01:46:11.149Z,0.00
2018-05-15T01:46:52.367Z,0.00
2018-05-15T01:47:28.184Z,0.00
2018-05-15T01:48:04.653Z,0.00
2018-05-15T01:48:39.937Z,0.00
2018-05-15T01:49:16.714Z,0.00
2018-05-15T01:49:55.319Z,0.00
2018-05-15T01:50:30.763Z,0.00
2018-05-15T01:51:06.439Z,0.00
2018-05-15T01:51:41.737Z,0.00
2018-05-15T01:52:16.956Z,0.00
2018-05-15T01:52:55.482Z,0.00
2018-05-15T01:53:31.001Z,0.00
2018-05-15T01:54:06.508Z,0.00
2018-05-15T01:54:41.741Z,0.00
2018-05-15T01:55:17.273Z,0.00
2018-05-15T01:55:52.590Z,0.00
2018-05-15T01:56:29.414Z,0.00
2018-05-15T01:57:04.730Z,0.00
2018-05-15T01:57:41.160Z,0.00
2018-05-15T01:58:16.782Z,0.00
2018-05-15T01:58:53.247Z,0.00
2018-05-15T01:59:28.507Z,0.00
2018-05-15T02:00:04.857Z,0.00
2018-05-15T02:00:40.297Z,0.00
2018-05-15T02:01:15.695Z,0.00
2018-05-15T02:01:56.322Z,0.00
2018-05-15T02:02:31.738Z,0.00
2018-05-15T02:03:09.984Z,0.00
2018-05-15T02:03:48.350Z,0.00
2018-05-15T02:04:24.993Z,0.00
2018-05-15T02:05:02.600Z,0.00
2018-05-15T02:05:38.294Z,0.00
2018-05-15T02:06:15.564Z,0.00
2018-05-15T02:06:50.718Z,0.00
2018-05-15T02:07:27.779Z,0.00
2018-05-15T02:08:03.044Z,0.00
2018-05-15T02:08:38.568Z,0.00
2018-05-15T02:09:14.467Z,0.00
2018-05-15T02:09:49.752Z,0.00
2018-05-15T02:10:25.200Z,0.00
2018-05-15T02:11:00.698Z,0.00
2018-05-15T02:11:35.924Z,0.00
2018-05-15T02:12:11.415Z,0.00
2018-05-15T02:12:48.629Z,0.00
2018-05-15T02:13:27.496Z,0.00
2018-05-15T02:14:02.825Z,0.00
2018-05-15T02:14:42.311Z,0.00
2018-05-15T02:15:19.172Z,0.00
2018-05-15T02:15:54.855Z,0.00
2018-05-15T02:16:33.501Z,0.00
2018-05-15T02:17:09.050Z,0.00
2018-05-15T02:17:47.464Z,0.00
2018-05-15T02:18:24.092Z,0.00
2018-05-15T02:18:59.508Z,0.00
2018-05-15T02:19:34.771Z,0.00
2018-05-15T02:20:09.766Z,0.00
2018-05-15T02:20:46.123Z,0.00
2018-05-15T02:21:22.897Z,0.00
2018-05-15T02:21:58.063Z,0.00
2018-05-15T02:22:33.306Z,0.00
2018-05-15T02:23:11.964Z,0.00
2018-05-15T02:23:47.303Z,0.00
2018-05-15T02:24:22.597Z,0.00
2018-05-15T02:24:57.866Z,0.00
2018-05-15T02:25:33.348Z,0.00
2018-05-15T02:26:10.129Z,0.00
2018-05-15T02:26:49.208Z,0.00
2018-05-15T02:27:26.746Z,0.00
2018-05-15T02:28:02.418Z,0.00
2018-05-15T02:28:39.317Z,0.00
2018-05-15T02:29:14.641Z,0.00
2018-05-15T02:29:49.727Z,0.00
2018-05-15T02:30:26.777Z,0.00
2018-05-15T02:31:03.237Z,0.00
2018-05-15T02:31:38.807Z,0.00
2018-05-15T02:32:13.895Z,0.00
2018-05-15T02:32:49.327Z,0.00
2018-05-15T02:33:25.387Z,0.00
2018-05-15T02:34:01.773Z,0.00
2018-05-15T02:34:37.387Z,0.00
2018-05-15T02:35:12.961Z,0.00
2018-05-15T02:35:51.364Z,0.00
2018-05-15T02:36:26.701Z,0.00
2018-05-15T02:37:02.149Z,0.00
2018-05-15T02:37:39.812Z,0.00
2018-05-15T02:38:18.967Z,0.00
2018-05-15T02:38:54.266Z,0.00
2018-05-15T02:39:30.507Z,0.00
2018-05-15T02:40:06.216Z,0.00
2018-05-15T02:40:42.045Z,0.00
2018-05-15T02:41:17.610Z,0.00
2018-05-15T02:41:53.301Z,0.00
2018-05-15T02:42:28.558Z,0.00
2018-05-15T02:43:04.102Z,0.00
2018-05-15T02:43:39.495Z,0.00
2018-05-15T02:44:14.757Z,0.00
2018-05-15T02:44:50.162Z,0.00
2018-05-15T02:45:27.373Z,0.00
2018-05-15T02:46:02.906Z,0.00
2018-05-15T02:46:38.590Z,0.00
2018-05-15T02:47:14.073Z,0.00
2018-05-15T02:47:49.487Z,0.00
2018-05-15T02:48:26.223Z,0.00
2018-05-15T02:49:01.936Z,0.00
2018-05-15T02:49:37.596Z,0.00
2018-05-15T02:50:13.056Z,0.00
2018-05-15T02:50:51.906Z,0.00
2018-05-15T02:51:27.279Z,0.00
2018-05-15T02:52:02.710Z,0.00
2018-05-15T02:52:37.902Z,0.00
2018-05-15T02:53:13.353Z,0.00
2018-05-15T02:53:48.667Z,0.00
2018-05-15T02:54:26.623Z,0.00
2018-05-15T02:55:04.957Z,0.00
2018-05-15T02:55:43.353Z,0.00
2018-05-15T02:56:18.283Z,0.00
2018-05-15T02:56:53.477Z,0.00
2018-05-15T02:57:28.848Z,0.00
2018-05-15T02:58:04.322Z,0.00
2018-05-15T02:58:39.851Z,0.00
2018-05-15T02:59:15.141Z,0.00
2018-05-15T02:59:50.593Z,0.00
2018-05-15T03:00:26.342Z,0.00
2018-05-15T03:01:01.811Z,0.00
2018-05-15T03:01:36.923Z,0.00
2018-05-15T03:02:12.435Z,0.00
2018-05-15T03:02:47.807Z,4.00
2018-05-15T03:03:23.396Z,4.00
2018-05-15T03:03:58.643Z,4.00
2018-05-15T03:04:33.839Z,4.00
2018-05-15T03:05:09.464Z,4.00
2018-05-15T03:05:44.975Z,0.00
2018-05-15T03:06:20.421Z,0.00
2018-05-15T03:06:55.690Z,4.00
2018-05-15T03:07:31.161Z,4.00
2018-05-15T03:08:06.447Z,4.00
2018-05-15T03:08:41.989Z,4.00
2018-05-15T03:09:17.349Z,4.00
2018-05-15T03:09:52.680Z,4.00
2018-05-15T03:10:28.317Z,4.00
2018-05-15T03:11:03.417Z,4.00
2018-05-15T03:11:38.831Z,8.00
2018-05-15T03:12:14.245Z,4.00
2018-05-15T03:12:49.763Z,8.00
2018-05-15T03:13:25.302Z,8.00
2018-05-15T03:14:00.407Z,8.00
2018-05-15T03:14:35.823Z,8.00
2018-05-15T03:15:11.226Z,12.00
2018-05-15T03:15:47.609Z,8.00
2018-05-15T03:16:23.144Z,12.00
2018-05-15T03:16:58.572Z,12.00
2018-05-15T03:17:33.927Z,12.00
2018-05-15T03:18:09.217Z,12.00
2018-05-15T03:18:44.717Z,16.00
2018-05-15T03:19:20.267Z,12.00
2018-05-15T03:19:55.378Z,16.00
2018-05-15T03:20:30.756Z,16.00
2018-05-15T03:21:05.968Z,20.00
2018-05-15T03:21:41.080Z,20.00
2018-05-15T03:22:16.511Z,20.00
2018-05-15T03:22:51.602Z,24.00
2018-05-15T03:23:26.821Z,24.00
2018-05-15T03:24:02.043Z,24.00
2018-05-15T03:24:37.256Z,28.00
2018-05-15T03:25:12.696Z,28.00
2018-05-15T03:25:48.765Z,32.00
2018-05-15T03:26:24.411Z,32.00
2018-05-15T03:26:59.820Z,36.00
2018-05-15T03:27:35.443Z,40.00
2018-05-15T03:28:10.900Z,44.00
2018-05-15T03:28:47.240Z,44.00
2018-05-15T03:29:22.685Z,48.00
2018-05-15T03:29:58.262Z,48.00
2018-05-15T03:30:33.607Z,52.00
2018-05-15T03:31:09.036Z,52.00
2018-05-15T03:31:44.327Z,60.00
2018-05-15T03:32:19.587Z,60.00
2018-05-15T03:32:54.979Z,68.00
2018-05-15T03:33:30.417Z,68.00
2018-05-15T03:34:05.772Z,72.00
2018-05-15T03:34:41.023Z,80.00
2018-05-15T03:35:16.475Z,80.00
2018-05-15T03:35:51.883Z,84.00
2018-05-15T03:36:27.427Z,88.00
2018-05-15T03:37:02.934Z,92.00
2018-05-15T03:37:38.390Z,96.00
2018-05-15T03:38:13.610Z,100.00
2018-05-15T03:38:49.047Z,108.00
2018-05-15T03:39:24.301Z,112.00
2018-05-15T03:39:59.803Z,120.00
2018-05-15T03:40:35.387Z,120.00
2018-05-15T03:41:10.619Z,128.00
2018-05-15T03:41:46.044Z,132.00
2018-05-15T03:42:21.560Z,140.00
2018-05-15T03:42:56.951Z,144.00
2018-05-15T03:43:32.635Z,148.00
2018-05-15T03:44:08.199Z,156.00
2018-05-15T03:44:43.974Z,160.00
2018-05-15T03:45:19.314Z,168.00
2018-05-15T03:45:55.209Z,176.00
2018-05-15T03:46:30.578Z,180.00
2018-05-15T03:47:06.038Z,192.00
2018-05-15T03:47:41.376Z,196.00
2018-05-15T03:48:17.021Z,204.00
2018-05-15T03:48:52.573Z,212.00
2018-05-15T03:49:28.283Z,220.00
2018-05-15T03:50:03.639Z,224.00
2018-05-15T03:50:40.022Z,232.00
2018-05-15T03:51:15.388Z,240.00
2018-05-15T03:51:50.628Z,248.00
2018-05-15T03:52:25.901Z,256.00
2018-05-15T03:53:01.394Z,264.00
2018-05-15T03:53:36.982Z,276.00
2018-05-15T03:54:12.076Z,280.00
2018-05-15T03:54:47.505Z,292.00
2018-05-15T03:55:23.194Z,300.00
2018-05-15T03:55:58.619Z,308.00
2018-05-15T03:56:34.290Z,316.00
2018-05-15T03:57:09.826Z,328.00
2018-05-15T03:57:45.158Z,336.00
2018-05-15T03:58:20.673Z,344.00
2018-05-15T03:58:56.030Z,352.00
2018-05-15T03:59:31.474Z,364.00
2018-05-15T04:00:07.052Z,372.00
2018-05-15T04:00:46.000Z,384.00
2018-05-15T04:01:21.379Z,396.00
2018-05-15T04:01:56.650Z,404.00
2018-05-15T04:02:32.118Z,412.00
2018-05-15T04:03:07.481Z,420.00
2018-05-15T04:03:42.678Z,432.00
2018-05-15T04:04:18.454Z,444.00
2018-05-15T04:04:54.239Z,456.00
2018-05-15T04:05:29.688Z,460.00
2018-05-15T04:06:04.897Z,472.00
2018-05-15T04:06:42.662Z,484.00
2018-05-15T04:07:18.350Z,492.00
2018-05-15T04:07:54.218Z,500.00
2018-05-15T04:08:29.988Z,512.00
2018-05-15T04:09:05.253Z,524.00
2018-05-15T04:09:40.547Z,532.00
2018-05-15T04:10:15.572Z,540.00
2018-05-15T04:10:51.229Z,548.00
2018-05-15T04:11:26.478Z,560.00
2018-05-15T04:12:02.115Z,572.00
2018-05-15T04:12:37.617Z,580.00
2018-05-15T04:13:12.999Z,592.00
2018-05-15T04:13:48.363Z,604.00
2018-05-15T04:14:23.932Z,612.00
2018-05-15T04:14:59.229Z,624.00
2018-05-15T04:15:34.592Z,632.00
2018-05-15T04:16:10.012Z,644.00
2018-05-15T04:16:45.637Z,652.00
2018-05-15T04:17:20.853Z,664.00
2018-05-15T04:17:56.208Z,672.00
2018-05-15T04:18:31.726Z,684.00
2018-05-15T04:19:07.136Z,692.00
2018-05-15T04:19:42.603Z,700.00
2018-05-15T04:20:17.729Z,708.00
2018-05-15T04:20:52.920Z,720.00
2018-05-15T04:21:29.982Z,728.00
2018-05-15T04:22:06.414Z,736.00
2018-05-15T04:22:41.963Z,748.00
2018-05-15T04:23:17.100Z,756.00
2018-05-15T04:23:52.716Z,764.00
2018-05-15T04:24:28.356Z,776.00
2018-05-15T04:25:03.724Z,784.00
2018-05-15T04:25:39.452Z,792.00
2018-05-15T04:26:14.892Z,808.00
2018-05-15T04:26:50.978Z,816.00
2018-05-15T04:27:26.200Z,828.00
2018-05-15T04:28:01.943Z,836.00
2018-05-15T04:28:38.015Z,852.00
2018-05-15T04:29:13.480Z,860.00
2018-05-15T04:29:48.805Z,872.00
2018-05-15T04:30:24.439Z,880.00
2018-05-15T04:30:59.759Z,888.00
2018-05-15T04:31:35.218Z,904.00
2018-05-15T04:32:10.680Z,920.00
2018-05-15T04:32:46.134Z,928.00
2018-05-15T04:33:21.738Z,940.00
2018-05-15T04:33:57.283Z,948.00
2018-05-15T04:34:32.466Z,956.00
2018-05-15T04:35:07.713Z,968.00
2018-05-15T04:35:43.303Z,976.00
2018-05-15T04:36:18.647Z,992.00
2018-05-15T04:36:54.243Z,1000.00
2018-05-15T04:37:29.311Z,1016.00
2018-05-15T04:38:04.566Z,1028.00
2018-05-15T04:38:40.003Z,1040.00
2018-05-15T04:39:16.009Z,1056.00
2018-05-15T04:39:51.635Z,1068.00
2018-05-15T04:40:27.696Z,1080.00
2018-05-15T04:41:03.159Z,1092.00
2018-05-15T04:41:38.600Z,1104.00
2018-05-15T04:42:14.121Z,1112.00
2018-05-15T04:42:51.237Z,1124.00
2018-05-15T04:43:26.592Z,1136.00
2018-05-15T04:44:02.025Z,1148.00
2018-05-15T04:44:37.172Z,1160.00
2018-05-15T04:45:12.554Z,1172.00
2018-05-15T04:45:48.334Z,1184.00
2018-05-15T04:46:23.691Z,1196.00
2018-05-15T04:47:01.570Z,1208.00
2018-05-15T04:47:36.937Z,1220.00
2018-05-15T04:48:12.513Z,1232.00
2018-05-15T04:48:47.861Z,1240.00
2018-05-15T04:49:23.317Z,1252.00
2018-05-15T04:49:58.742Z,1264.00
2018-05-15T04:50:34.210Z,1276.00
2018-05-15T04:51:09.449Z,1284.00
2018-05-15T04:51:44.808Z,1296.00
2018-05-15T04:52:20.235Z,1308.00
2018-05-15T04:52:55.923Z,1316.00
2018-05-15T04:53:31.611Z,1324.00
2018-05-15T04:54:06.928Z,1336.00
2018-05-15T04:54:44.293Z,1344.00
2018-05-15T04:55:19.534Z,1352.00
2018-05-15T04:55:54.815Z,1364.00
2018-05-15T04:56:30.781Z,1372.00
2018-05-15T04:57:06.079Z,1388.00
2018-05-15T04:57:41.084Z,1396.00
2018-05-15T04:58:16.447Z,1404.00
2018-05-15T04:58:52.201Z,1420.00
2018-05-15T04:59:27.881Z,1432.00
2018-05-15T05:00:03.393Z,1444.00
2018-05-15T05:00:39.531Z,1460.00
2018-05-15T05:01:17.604Z,1476.00
2018-05-15T05:01:54.099Z,1488.00
2018-05-15T05:02:29.542Z,1496.00
2018-05-15T05:03:06.902Z,1512.00
2018-05-15T05:03:42.573Z,1528.00
2018-05-15T05:04:17.902Z,1536.00
2018-05-15T05:04:55.843Z,1552.00
2018-05-15T05:05:31.058Z,1568.00
2018-05-15T05:06:06.263Z,1584.00
2018-05-15T05:06:41.784Z,1596.00
2018-05-15T05:07:17.091Z,1608.00
2018-05-15T05:07:52.351Z,1620.00
2018-05-15T05:08:27.920Z,1636.00
2018-05-15T05:09:03.396Z,1648.00
2018-05-15T05:09:39.356Z,1664.00
2018-05-15T05:10:14.695Z,1680.00
2018-05-15T05:10:50.199Z,1696.00
2018-05-15T05:11:28.326Z,1712.00
2018-05-15T05:12:03.781Z,1728.00
2018-05-15T05:12:39.415Z,1744.00
2018-05-15T05:13:14.928Z,1760.00
2018-05-15T05:13:50.277Z,1776.00
2018-05-15T05:14:26.864Z,1796.00
2018-05-15T05:15:04.268Z,1816.00
2018-05-15T05:15:39.697Z,1836.00
2018-05-15T05:16:16.109Z,1852.00
2018-05-15T05:16:51.566Z,1864.00
2018-05-15T05:17:27.226Z,1876.00
2018-05-15T05:18:02.639Z,1892.00
2018-05-15T05:18:38.067Z,1904.00
2018-05-15T05:19:13.516Z,1920.00
2018-05-15T05:19:48.823Z,1932.00
2018-05-15T05:20:24.349Z,1948.00
2018-05-15T05:21:03.003Z,1964.00
2018-05-15T05:21:38.175Z,1984.00
2018-05-15T05:22:13.843Z,2004.00
2018-05-15T05:22:49.152Z,2028.00
2018-05-15T05:23:24.510Z,2048.00
2018-05-15T05:23:59.831Z,2068.00
2018-05-15T05:24:35.028Z,2088.00
2018-05-15T05:25:10.405Z,2104.00
2018-05-15T05:25:49.250Z,2124.00
2018-05-15T05:26:25.046Z,2140.00
2018-05-15T05:27:00.367Z,2164.00
2018-05-15T05:27:35.706Z,2184.00
2018-05-15T05:28:10.812Z,2204.00
2018-05-15T05:28:46.474Z,2224.00
2018-05-15T05:29:21.845Z,2240.00
2018-05-15T05:29:57.331Z,2264.00
2018-05-15T05:30:32.519Z,2292.00
2018-05-15T05:31:08.349Z,2316.00
2018-05-15T05:31:46.304Z,2340.00
2018-05-15T05:32:23.110Z,2352.00
2018-05-15T05:32:58.356Z,2368.00
2018-05-15T05:33:33.988Z,2376.00
2018-05-15T05:34:09.775Z,2392.00
2018-05-15T05:34:47.050Z,2408.00
2018-05-15T05:35:22.392Z,2424.00
2018-05-15T05:35:57.831Z,2432.00
2018-05-15T05:36:33.129Z,2444.00
2018-05-15T05:37:08.621Z,2460.00
2018-05-15T05:37:45.075Z,2480.00
2018-05-15T05:38:20.577Z,2496.00
2018-05-15T05:38:56.911Z,2520.00
2018-05-15T05:39:32.245Z,2536.00
2018-05-15T05:40:08.233Z,2560.00
2018-05-15T05:40:44.998Z,2572.00
2018-05-15T05:41:20.427Z,2588.00
2018-05-15T05:41:55.640Z,2608.00
2018-05-15T05:42:31.162Z,2620.00
2018-05-15T05:43:06.682Z,2632.00
2018-05-15T05:43:41.996Z,2640.00
2018-05-15T05:44:17.188Z,2652.00
2018-05-15T05:44:52.701Z,2672.00
2018-05-15T05:45:28.293Z,2696.00
2018-05-15T05:46:03.578Z,2724.00
2018-05-15T05:46:39.035Z,2756.00
2018-05-15T05:47:14.254Z,2780.00
2018-05-15T05:47:49.435Z,2804.00
2018-05-15T05:48:25.217Z,2824.00
2018-05-15T05:49:00.751Z,2848.00
2018-05-15T05:49:36.177Z,2868.00
2018-05-15T05:50:11.762Z,2880.00
2018-05-15T05:50:51.487Z,2892.00
2018-05-15T05:51:29.171Z,2444.00
2018-05-15T05:52:05.613Z,2936.00
2018-05-15T05:52:41.290Z,2968.00
2018-05-15T05:53:16.930Z,2992.00
2018-05-15T05:53:55.705Z,3012.00
2018-05-15T05:54:34.035Z,3032.00
2018-05-15T05:55:09.521Z,3052.00
2018-05-15T05:55:44.874Z,3068.00
2018-05-15T05:56:20.384Z,3080.00
2018-05-15T05:56:57.040Z,3096.00
2018-05-15T05:57:32.420Z,3112.00
2018-05-15T05:58:07.787Z,3124.00
2018-05-15T05:58:43.074Z,3140.00
2018-05-15T05:59:18.313Z,3152.00
2018-05-15T05:59:53.713Z,3168.00
2018-05-15T06:00:28.913Z,3188.00
2018-05-15T06:01:04.770Z,3208.00
2018-05-15T06:01:40.216Z,3228.00
2018-05-15T06:02:15.544Z,3248.00
2018-05-15T06:02:51.252Z,3264.00
2018-05-15T06:03:26.928Z,3280.00
2018-05-15T06:04:02.272Z,3304.00
2018-05-15T06:04:37.798Z,3328.00
2018-05-15T06:05:13.177Z,3352.00
2018-05-15T06:05:48.478Z,3380.00
2018-05-15T06:06:23.797Z,3404.00
2018-05-15T06:06:59.490Z,3428.00
2018-05-15T06:07:34.922Z,3452.00
2018-05-15T06:08:10.401Z,3472.00
2018-05-15T06:08:45.945Z,3500.00
2018-05-15T06:09:21.242Z,3524.00
2018-05-15T06:09:56.640Z,3556.00
2018-05-15T06:10:32.093Z,3588.00
2018-05-15T06:11:07.558Z,3624.00
2018-05-15T06:11:43.163Z,3660.00
2018-05-15T06:12:18.442Z,3696.00
2018-05-15T06:12:53.910Z,3732.00
2018-05-15T06:13:29.256Z,3780.00
2018-05-15T06:14:04.744Z,3816.00
2018-05-15T06:14:40.281Z,3844.00
2018-05-15T06:15:15.739Z,3900.00
2018-05-15T06:15:51.662Z,3940.00
2018-05-15T06:16:27.060Z,3988.00
2018-05-15T06:17:02.389Z,4032.00
2018-05-15T06:17:37.587Z,4080.00
2018-05-15T06:18:13.039Z,4112.00
2018-05-15T06:18:48.541Z,4152.00
2018-05-15T06:19:23.907Z,4204.00
2018-05-15T06:19:59.152Z,4268.00
2018-05-15T06:20:34.194Z,4332.00
2018-05-15T06:21:09.672Z,4392.00
2018-05-15T06:21:45.262Z,4452.00
2018-05-15T06:22:20.653Z,4516.00
2018-05-15T06:22:56.018Z,4588.00
2018-05-15T06:23:31.392Z,4644.00
2018-05-15T06:24:06.998Z,4696.00
2018-05-15T06:24:42.839Z,4760.00
2018-05-15T06:25:18.460Z,4820.00
2018-05-15T06:25:57.782Z,4880.00
2018-05-15T06:26:33.232Z,4944.00
2018-05-15T06:27:08.678Z,5000.00
2018-05-15T06:27:45.358Z,5048.00
2018-05-15T06:28:20.821Z,5100.00
2018-05-15T06:28:56.182Z,5156.00
2018-05-15T06:29:31.649Z,5216.00
2018-05-15T06:30:07.229Z,5276.00
2018-05-15T06:30:46.981Z,5360.00
2018-05-15T06:31:22.468Z,5432.00
2018-05-15T06:31:57.506Z,5532.00
2018-05-15T06:32:32.800Z,5636.00
2018-05-15T06:33:08.367Z,5756.00
2018-05-15T06:33:43.887Z,5900.00
2018-05-15T06:34:19.455Z,6004.00
2018-05-15T06:34:54.707Z,6092.00
2018-05-15T06:35:30.363Z,6152.00
2018-05-15T06:36:05.556Z,6220.00
2018-05-15T06:36:42.513Z,6308.00
2018-05-15T06:37:17.696Z,6420.00
2018-05-15T06:37:53.256Z,6552.00
2018-05-15T06:38:28.692Z,6680.00
2018-05-15T06:39:04.094Z,6788.00
2018-05-15T06:39:39.468Z,6896.00
2018-05-15T06:40:15.029Z,6988.00
2018-05-15T06:40:53.788Z,7104.00
2018-05-15T06:41:32.218Z,7232.00
2018-05-15T06:42:10.761Z,7360.00
2018-05-15T06:42:49.227Z,7544.00
2018-05-15T06:43:24.642Z,9000.00
2018-05-15T06:44:01.615Z,14884.00
2018-05-15T06:46:38.637Z,31456.00
2018-05-15T06:47:14.090Z,33216.00
2018-05-15T06:47:49.216Z,34112.00
2018-05-15T06:48:24.756Z,34816.00
2018-05-15T06:49:01.750Z,34688.00
2018-05-15T06:49:37.965Z,35328.00
2018-05-15T06:50:14.350Z,36128.00
2018-05-15T06:50:51.577Z,37248.00
2018-05-15T06:51:30.225Z,37856.00
2018-05-15T06:52:05.626Z,39040.00
2018-05-15T06:52:41.179Z,39552.00
2018-05-15T06:53:16.341Z,40608.00
2018-05-15T06:53:52.395Z,41216.00
2018-05-15T06:54:27.943Z,41152.00
2018-05-15T06:55:03.104Z,40256.00
2018-05-15T06:55:38.453Z,39360.00
2018-05-15T06:56:16.622Z,39872.00
2018-05-15T06:56:52.044Z,39712.00
2018-05-15T06:57:27.356Z,39008.00
2018-05-15T06:58:02.850Z,39424.00
2018-05-15T06:58:40.681Z,39552.00
2018-05-15T06:59:16.202Z,40224.00
2018-05-15T06:59:51.489Z,40736.00
2018-05-15T07:00:26.887Z,39680.00
2018-05-15T07:01:05.364Z,38496.00
2018-05-15T07:01:44.493Z,37600.00
2018-05-15T07:02:19.846Z,37248.00
2018-05-15T07:02:58.296Z,36384.00
2018-05-15T07:03:33.727Z,36096.00
2018-05-15T07:04:09.064Z,36256.00
2018-05-15T07:04:44.189Z,36256.00
2018-05-15T07:05:19.265Z,36704.00
2018-05-15T07:05:57.880Z,36608.00
2018-05-15T07:06:36.218Z,37600.00
2018-05-15T07:07:11.585Z,37280.00
2018-05-15T07:07:49.400Z,37472.00
2018-05-15T07:08:24.699Z,37152.00
2018-05-15T07:09:03.561Z,37376.00
2018-05-15T07:09:39.101Z,37248.00
2018-05-15T07:10:14.567Z,37664.00
2018-05-15T07:10:50.080Z,38016.00
2018-05-15T07:11:25.274Z,38752.00
2018-05-15T07:12:00.943Z,39328.00
2018-05-15T07:12:39.316Z,38912.00
2018-05-15T07:13:17.255Z,38816.00
2018-05-15T07:13:52.703Z,37728.00
2018-05-15T07:14:28.238Z,37152.00
2018-05-15T07:15:03.437Z,36448.00
2018-05-15T07:15:39.599Z,36704.00
2018-05-15T07:16:14.960Z,36640.00
2018-05-15T07:16:54.357Z,36096.00
2018-05-15T07:17:31.793Z,36448.00
2018-05-15T07:18:08.907Z,36800.00
2018-05-15T07:18:44.303Z,37024.00
2018-05-15T07:19:19.643Z,36320.00
2018-05-15T07:19:55.013Z,35968.00
2018-05-15T07:20:30.217Z,35904.00
2018-05-15T07:21:05.699Z,35648.00
2018-05-15T07:21:41.263Z,35360.00
2018-05-15T07:22:16.356Z,35360.00
2018-05-15T07:22:51.810Z,35232.00
2018-05-15T07:23:27.585Z,34976.00
2018-05-15T07:24:02.975Z,35200.00
2018-05-15T07:24:38.392Z,35168.00
2018-05-15T07:25:15.697Z,34816.00
2018-05-15T07:25:55.391Z,34752.00
2018-05-15T07:26:30.720Z,35744.00
2018-05-15T07:27:06.134Z,35392.00
2018-05-15T07:27:47.270Z,34848.00
2018-05-15T07:28:23.908Z,34752.00
2018-05-15T07:29:01.653Z,35008.00
2018-05-15T07:29:37.115Z,35552.00
2018-05-15T07:30:12.423Z,35456.00
2018-05-15T07:30:47.634Z,35648.00
2018-05-15T07:31:22.827Z,36096.00
2018-05-15T07:31:58.306Z,34880.00
2018-05-15T07:32:36.309Z,33568.00
2018-05-15T07:33:11.590Z,32032.00
2018-05-15T07:33:50.969Z,30464.00
2018-05-15T07:34:26.527Z,30592.00
2018-05-15T07:35:01.753Z,31008.00
2018-05-15T07:35:40.266Z,32448.00